createdAt,value
2023-01-17T00:01:29.483Z,4.60
2023-01-17T00:04:15.618Z,4.61
2023-01-17T00:07:01.794Z,4.62
2023-01-17T00:09:48.134Z,4.62
2023-01-17T00:12:15.823Z,4.60
2023-01-17T00:14:43.727Z,4.62
2023-01-17T00:17:11.302Z,4.63
2023-01-17T00:19:57.515Z,4.68
2023-01-17T00:22:46.085Z,4.69
2023-01-17T00:25:39.934Z,4.72
2023-01-17T00:28:07.865Z,4.76
2023-01-17T00:30:35.986Z,4.75
2023-01-17T00:33:03.633Z,4.76
2023-01-17T00:35:32.409Z,4.72
2023-01-17T00:38:17.390Z,4.76
2023-01-17T00:40:46.011Z,4.77
2023-01-17T00:43:33.818Z,4.76
2023-01-17T00:46:20.338Z,4.78
2023-01-17T00:49:06.605Z,4.77
2023-01-17T00:51:53.950Z,4.80
2023-01-17T00:54:40.663Z,4.81
2023-01-17T00:57:27.348Z,4.78
2023-01-17T01:00:13.938Z,4.87
2023-01-17T01:03:00.597Z,4.91
2023-01-17T01:05:46.963Z,4.91
2023-01-17T01:08:41.027Z,4.93
2023-01-17T01:11:29.450Z,4.92
2023-01-17T01:14:15.905Z,5.01
2023-01-17T01:17:01.948Z,5.03
2023-01-17T01:19:48.668Z,5.08
2023-01-17T01:22:34.983Z,5.11
2023-01-17T01:25:21.986Z,5.14
2023-01-17T01:28:08.113Z,5.18
2023-01-17T01:30:54.451Z,5.27
2023-01-17T01:33:21.949Z,5.28
2023-01-17T01:35:54.513Z,5.31
2023-01-17T01:38:24.257Z,5.34
2023-01-17T01:40:54.507Z,5.28
2023-01-17T01:43:45.273Z,5.32
2023-01-17T01:46:35.799Z,5.36
2023-01-17T01:49:14.880Z,5.38
2023-01-17T01:51:46.048Z,5.41
2023-01-17T01:54:50.189Z,5.46
2023-01-17T01:57:21.104Z,5.48
2023-01-17T02:00:11.684Z,5.50
2023-01-17T02:02:39.379Z,5.48
2023-01-17T02:05:09.233Z,5.46
2023-01-17T02:07:43.423Z,5.46
2023-01-17T02:10:12.846Z,5.46
2023-01-17T02:12:40.527Z,5.49
2023-01-17T02:15:08.704Z,5.50
2023-01-17T02:17:58.003Z,5.55
2023-01-17T02:20:55.244Z,5.57
2023-01-17T02:23:38.475Z,5.62
2023-01-17T02:26:34.530Z,5.65
2023-01-17T02:29:20.396Z,5.69
2023-01-17T02:31:51.986Z,5.73
2023-01-17T02:34:35.553Z,5.76
2023-01-17T02:37:28.749Z,5.75
2023-01-17T02:40:00.638Z,5.74
2023-01-17T02:42:36.357Z,5.72
2023-01-17T02:45:04.847Z,5.69
2023-01-17T02:47:32.640Z,5.80
2023-01-17T02:50:07.858Z,5.59
2023-01-17T02:53:06.571Z,5.25
2023-01-17T02:55:39.068Z,5.12
2023-01-17T02:58:28.666Z,5.13
2023-01-17T03:00:59.208Z,5.07
2023-01-17T03:03:52.577Z,4.92
2023-01-17T03:06:40.211Z,4.87
2023-01-17T03:09:09.008Z,4.85
2023-01-17T03:11:36.911Z,4.82
2023-01-17T03:14:04.501Z,4.83
2023-01-17T03:16:33.493Z,4.75
2023-01-17T03:19:01.391Z,4.72
2023-01-17T03:21:28.991Z,4.75
2023-01-17T03:23:56.830Z,4.68
2023-01-17T03:26:24.418Z,4.71
2023-01-17T03:28:52.028Z,4.67
2023-01-17T03:31:20.083Z,4.64
2023-01-17T03:33:47.633Z,4.71
2023-01-17T03:36:15.292Z,4.67
2023-01-17T03:38:43.243Z,4.72
2023-01-17T03:41:10.820Z,4.74
2023-01-17T03:43:38.825Z,4.74
2023-01-17T03:46:08.458Z,4.79
2023-01-17T03:48:36.243Z,4.82
2023-01-17T03:51:04.045Z,4.82
2023-01-17T03:53:31.829Z,4.82
2023-01-17T03:56:00.345Z,4.85
2023-01-17T03:58:27.855Z,4.78
2023-01-17T04:00:55.829Z,4.79
2023-01-17T04:03:23.865Z,4.78
2023-01-17T04:05:51.868Z,4.70
2023-01-17T04:08:19.486Z,4.71
2023-01-17T04:10:47.471Z,4.69
2023-01-17T04:13:16.827Z,4.59
2023-01-17T04:15:46.134Z,4.59
2023-01-17T04:18:14.379Z,4.58
2023-01-17T04:20:42.092Z,4.47
2023-01-17T04:23:09.592Z,4.46
2023-01-17T04:25:37.523Z,4.37
2023-01-17T04:28:06.021Z,4.19
2023-01-17T04:30:34.026Z,4.23
2023-01-17T04:33:02.007Z,4.20
2023-01-17T04:35:31.023Z,4.19
2023-01-17T04:37:58.534Z,4.11
2023-01-17T04:40:26.608Z,4.13
2023-01-17T04:42:54.437Z,4.11
2023-01-17T04:45:22.211Z,4.10
2023-01-17T04:47:50.238Z,4.07
2023-01-17T04:50:18.362Z,3.83
2023-01-17T04:52:45.914Z,3.87
2023-01-17T04:55:13.901Z,3.88
2023-01-17T04:57:41.475Z,3.91
2023-01-17T05:00:09.561Z,3.91
2023-01-17T05:02:37.443Z,3.89
2023-01-17T05:05:05.398Z,3.82
2023-01-17T05:07:35.640Z,3.84
2023-01-17T05:10:04.572Z,3.78
2023-01-17T05:12:32.070Z,3.75
2023-01-17T05:14:59.540Z,3.67
2023-01-17T05:17:27.430Z,3.63
2023-01-17T05:19:55.056Z,3.58
2023-01-17T05:22:22.588Z,3.58
2023-01-17T05:24:50.415Z,3.59
2023-01-17T05:27:17.995Z,3.45
2023-01-17T05:29:45.850Z,3.27
2023-01-17T05:32:13.690Z,3.20
2023-01-17T05:34:41.158Z,3.28
2023-01-17T05:37:08.852Z,3.32
2023-01-17T05:39:36.768Z,3.32
2023-01-17T05:42:04.484Z,3.31
2023-01-17T05:44:32.144Z,3.17
2023-01-17T05:47:00.005Z,3.07
2023-01-17T05:49:27.623Z,3.10
2023-01-17T05:51:55.533Z,3.08
2023-01-17T05:54:23.375Z,3.08
2023-01-17T05:56:50.946Z,3.03
2023-01-17T05:59:28.584Z,3.06
2023-01-17T06:02:04.054Z,3.13
2023-01-17T06:04:31.967Z,2.96
2023-01-17T06:06:59.622Z,3.36
2023-01-17T06:09:27.225Z,3.23
2023-01-17T06:11:55.090Z,3.23
2023-01-17T06:14:22.640Z,3.30
2023-01-17T06:16:50.222Z,3.27
2023-01-17T06:19:18.156Z,3.24
2023-01-17T06:21:45.812Z,3.25
2023-01-17T06:24:13.514Z,3.22
2023-01-17T06:26:43.752Z,3.25
2023-01-17T06:29:12.403Z,3.02
2023-01-17T06:31:40.305Z,3.03
2023-01-17T06:34:08.287Z,3.04
2023-01-17T06:36:35.817Z,2.92
2023-01-17T06:39:03.775Z,2.96
2023-01-17T06:41:32.184Z,2.96
2023-01-17T06:43:59.780Z,3.02
2023-01-17T06:46:27.564Z,3.01
2023-01-17T06:48:56.031Z,3.02
2023-01-17T06:51:23.509Z,3.02
2023-01-17T06:53:51.221Z,3.04
2023-01-17T06:56:19.404Z,3.09
2023-01-17T06:58:50.752Z,3.09
2023-01-17T07:01:19.097Z,3.21
2023-01-17T07:03:47.276Z,3.30
2023-01-17T07:06:14.884Z,3.42
2023-01-17T07:08:42.480Z,3.48
2023-01-17T07:11:10.773Z,3.52
2023-01-17T07:13:38.657Z,3.68
2023-01-17T07:16:07.667Z,3.88
2023-01-17T07:18:35.588Z,3.94
2023-01-17T07:21:03.059Z,4.09
2023-01-17T07:23:30.666Z,4.18
2023-01-17T07:25:59.812Z,4.18
2023-01-17T07:28:28.133Z,4.31
2023-01-17T07:30:55.603Z,4.38
2023-01-17T07:33:23.620Z,4.44
2023-01-17T07:35:54.520Z,4.48
2023-01-17T07:38:22.084Z,4.57
2023-01-17T07:40:49.983Z,4.59
2023-01-17T07:43:17.739Z,4.61
2023-01-17T07:45:52.060Z,4.66
2023-01-17T07:48:21.966Z,4.75
2023-01-17T07:50:57.116Z,4.81
2023-01-17T07:53:27.716Z,5.04
2023-01-17T07:55:55.627Z,5.06
2023-01-17T07:58:23.234Z,5.19
2023-01-17T08:00:51.274Z,5.29
2023-01-17T08:03:20.339Z,5.49
2023-01-17T08:05:55.726Z,5.70
2023-01-17T08:08:28.230Z,5.83
2023-01-17T08:10:55.930Z,5.96
2023-01-17T08:13:23.983Z,6.01
2023-01-17T08:15:51.838Z,6.02
2023-01-17T08:18:19.541Z,6.08
2023-01-17T08:20:47.565Z,6.04
2023-01-17T08:23:15.617Z,6.14
2023-01-17T08:25:43.162Z,6.22
2023-01-17T08:28:11.190Z,6.23
2023-01-17T08:30:39.231Z,6.23
2023-01-17T08:33:10.210Z,6.26
2023-01-17T08:35:38.406Z,6.51
2023-01-17T08:38:06.175Z,6.52
2023-01-17T08:40:33.827Z,6.65
2023-01-17T08:43:01.708Z,6.72
2023-01-17T08:45:29.513Z,6.89
2023-01-17T08:47:58.659Z,7.01
2023-01-17T08:50:27.105Z,7.16
2023-01-17T08:53:00.958Z,7.11
2023-01-17T08:55:29.301Z,7.00
2023-01-17T08:57:57.437Z,6.99
2023-01-17T09:00:25.203Z,7.10
2023-01-17T09:02:53.942Z,7.29
2023-01-17T09:05:21.538Z,7.42
2023-01-17T09:07:49.154Z,7.67
2023-01-17T09:10:17.205Z,7.81
2023-01-17T09:12:44.775Z,7.74
2023-01-17T09:15:15.670Z,7.65
2023-01-17T09:17:43.772Z,7.71
2023-01-17T09:20:12.023Z,7.66
2023-01-17T09:22:39.933Z,7.65
2023-01-17T09:25:08.498Z,7.65
2023-01-17T09:27:36.198Z,7.74
2023-01-17T09:30:04.682Z,7.76
2023-01-17T09:32:32.981Z,7.75
2023-01-17T09:35:00.849Z,7.78
2023-01-17T09:37:28.656Z,7.72
2023-01-17T09:39:57.737Z,7.74
2023-01-17T09:42:42.517Z,7.78
2023-01-17T09:45:16.660Z,7.75
2023-01-17T09:47:46.626Z,7.92
2023-01-17T09:50:23.455Z,7.91
2023-01-17T09:53:00.601Z,7.99
2023-01-17T09:55:44.043Z,8.06
2023-01-17T09:58:21.627Z,8.19
2023-01-17T10:01:01.400Z,8.16
2023-01-17T10:03:56.017Z,8.22
2023-01-17T10:07:14.609Z,8.34
2023-01-17T10:09:51.317Z,8.35
2023-01-17T10:12:29.799Z,8.38
2023-01-17T10:15:10.448Z,8.37
2023-01-17T10:17:47.134Z,8.27
2023-01-17T10:20:42.092Z,8.26
2023-01-17T10:23:43.217Z,8.28
2023-01-17T10:26:17.563Z,8.31
2023-01-17T10:28:51.388Z,8.42
2023-01-17T10:31:24.707Z,8.34
2023-01-17T10:33:56.354Z,8.40
2023-01-17T10:36:28.170Z,8.47
2023-01-17T10:38:59.543Z,8.46
2023-01-17T10:41:34.068Z,8.49
2023-01-17T10:44:12.104Z,8.40
2023-01-17T10:47:12.267Z,8.46
2023-01-17T10:49:43.446Z,8.46
2023-01-17T10:52:39.035Z,8.57
2023-01-17T10:55:12.992Z,8.67
2023-01-17T10:57:47.936Z,8.68
2023-01-17T11:00:41.921Z,8.77
2023-01-17T11:03:15.058Z,8.70
2023-01-17T11:05:43.966Z,8.77
2023-01-17T11:08:14.429Z,8.90
2023-01-17T11:10:43.186Z,8.85
2023-01-17T11:13:32.653Z,8.71
2023-01-17T11:16:10.117Z,8.70
2023-01-17T11:18:39.693Z,8.73
2023-01-17T11:21:12.307Z,8.82
2023-01-17T11:23:44.297Z,8.82
2023-01-17T11:27:02.503Z,8.88
2023-01-17T11:29:39.017Z,8.94
2023-01-17T11:32:31.145Z,8.91
2023-01-17T11:35:16.934Z,9.02
2023-01-17T11:37:58.554Z,9.09
2023-01-17T11:40:36.399Z,9.16
2023-01-17T11:43:15.500Z,9.25
2023-01-17T11:45:43.075Z,9.34
2023-01-17T11:48:17.251Z,9.41
2023-01-17T11:50:56.330Z,9.51
2023-01-17T11:53:30.793Z,9.59
2023-01-17T11:56:10.490Z,9.59
2023-01-17T11:58:43.536Z,9.63
2023-01-17T12:01:46.843Z,9.60
2023-01-17T12:04:36.653Z,9.50
2023-01-17T12:07:07.603Z,9.50
2023-01-17T12:10:02.334Z,9.48
2023-01-17T12:13:01.812Z,9.48
2023-01-17T12:15:39.593Z,9.55
2023-01-17T12:18:36.635Z,9.54
2023-01-17T12:21:04.609Z,9.56
2023-01-17T12:23:48.110Z,9.57
2023-01-17T12:26:42.643Z,9.53
2023-01-17T12:29:39.127Z,9.49
2023-01-17T12:32:28.627Z,9.48
2023-01-17T12:35:12.035Z,9.49
2023-01-17T12:37:42.414Z,9.50
2023-01-17T12:40:13.170Z,9.50
2023-01-17T12:42:44.636Z,9.51
2023-01-17T12:45:17.586Z,9.48
2023-01-17T12:47:49.267Z,9.38
2023-01-17T12:50:32.977Z,9.40
2023-01-17T12:53:23.066Z,9.41
2023-01-17T12:55:59.372Z,9.40
2023-01-17T12:58:45.343Z,9.39
2023-01-17T13:01:29.954Z,9.36
2023-01-17T13:04:16.695Z,9.36
2023-01-17T13:06:59.953Z,9.35
2023-01-17T13:09:39.811Z,9.34
2023-01-17T13:12:16.886Z,9.35
2023-01-17T13:14:48.562Z,9.32
2023-01-17T13:17:24.984Z,9.34
2023-01-17T13:20:47.209Z,9.31
2023-01-17T13:24:03.427Z,9.33
2023-01-17T13:26:55.674Z,9.31
2023-01-17T13:29:52.366Z,9.29
2023-01-17T13:32:49.405Z,9.27
2023-01-17T13:35:27.225Z,9.22
2023-01-17T13:38:09.700Z,9.24
2023-01-17T13:40:37.588Z,9.24
2023-01-17T13:43:11.476Z,9.23
2023-01-17T13:45:39.560Z,9.22
2023-01-17T13:48:25.835Z,9.22
2023-01-17T13:50:58.594Z,9.22
2023-01-17T13:53:31.476Z,9.20
2023-01-17T13:56:22.447Z,9.18
2023-01-17T13:58:50.651Z,9.17
2023-01-17T14:01:24.586Z,9.16
2023-01-17T14:03:52.784Z,9.11
2023-01-17T14:06:35.592Z,9.12
2023-01-17T14:09:21.343Z,9.12
2023-01-17T14:12:01.652Z,9.09
2023-01-17T14:14:41.688Z,9.03
2023-01-17T14:17:28.269Z,9.05
2023-01-17T14:20:01.827Z,9.04
2023-01-17T14:22:33.330Z,9.02
2023-01-17T14:25:17.550Z,9.03
2023-01-17T14:28:01.313Z,9.00
2023-01-17T14:30:31.997Z,8.98
2023-01-17T14:33:02.271Z,8.92
2023-01-17T14:35:36.725Z,8.94
2023-01-17T14:38:16.415Z,8.91
2023-01-17T14:40:50.876Z,8.90
2023-01-17T14:43:24.590Z,8.83
2023-01-17T14:46:08.162Z,8.80
2023-01-17T14:48:39.706Z,8.78
2023-01-17T14:51:19.108Z,8.76
2023-01-17T14:54:00.341Z,8.74
2023-01-17T14:56:29.749Z,8.72
2023-01-17T14:59:14.606Z,8.70
2023-01-17T15:02:06.278Z,8.68
2023-01-17T15:04:39.617Z,8.62
2023-01-17T15:07:14.481Z,8.58
2023-01-17T15:09:43.204Z,8.55
2023-01-17T15:12:13.847Z,8.56
2023-01-17T15:14:43.968Z,8.54
2023-01-17T15:17:24.851Z,8.51
2023-01-17T15:20:03.824Z,8.51
2023-01-17T15:22:32.426Z,8.46
2023-01-17T15:25:00.306Z,8.48
2023-01-17T15:27:28.249Z,8.47
2023-01-17T15:30:01.489Z,8.45
2023-01-17T15:32:32.600Z,8.44
2023-01-17T15:35:02.919Z,8.45
2023-01-17T15:37:32.824Z,8.44
2023-01-17T15:40:07.082Z,8.42
2023-01-17T15:42:36.680Z,8.39
2023-01-17T15:45:06.387Z,8.39
2023-01-17T15:47:38.943Z,8.39
2023-01-17T15:50:28.581Z,8.38
2023-01-17T15:53:05.288Z,8.37
2023-01-17T15:55:38.269Z,8.36
2023-01-17T15:58:25.454Z,8.35
2023-01-17T16:00:53.943Z,8.35
2023-01-17T16:03:23.611Z,8.38
2023-01-17T16:05:53.092Z,8.36
2023-01-17T16:08:38.613Z,8.34
2023-01-17T16:11:08.078Z,8.33
2023-01-17T16:13:38.749Z,8.26
2023-01-17T16:16:17.753Z,8.32
2023-01-17T16:18:46.863Z,8.28
2023-01-17T16:21:26.534Z,8.30
2023-01-17T16:23:54.750Z,8.29
2023-01-17T16:26:22.817Z,8.29
2023-01-17T16:28:50.544Z,8.26
2023-01-17T16:31:18.502Z,8.25
2023-01-17T16:33:48.898Z,8.21
2023-01-17T16:36:17.110Z,8.21
2023-01-17T16:38:45.781Z,8.21
2023-01-17T16:41:13.531Z,8.17
2023-01-17T16:43:41.152Z,8.21
2023-01-17T16:46:11.217Z,8.20
2023-01-17T16:48:38.762Z,8.20
2023-01-17T16:51:07.760Z,8.20
2023-01-17T16:53:36.592Z,8.19
2023-01-17T16:56:12.017Z,8.18
2023-01-17T16:58:40.296Z,8.16
2023-01-17T17:01:15.478Z,8.20
2023-01-17T17:03:44.102Z,8.25
2023-01-17T17:06:12.550Z,8.24
2023-01-17T17:08:40.300Z,8.25
2023-01-17T17:11:15.384Z,8.27
2023-01-17T17:13:44.710Z,8.27
2023-01-17T17:16:24.192Z,8.31
2023-01-17T17:18:57.247Z,8.29
2023-01-17T17:21:25.818Z,8.25
2023-01-17T17:23:58.285Z,8.29
2023-01-17T17:26:35.084Z,8.30
2023-01-17T17:29:03.561Z,8.27
2023-01-17T17:31:31.894Z,8.30
2023-01-17T17:34:01.124Z,8.28
2023-01-17T17:36:28.998Z,8.25
2023-01-17T17:38:57.729Z,8.31
2023-01-17T17:41:27.282Z,8.26
2023-01-17T17:43:55.369Z,8.30
2023-01-17T17:46:24.575Z,8.31
2023-01-17T17:48:52.372Z,8.27
2023-01-17T17:51:34.709Z,8.25
2023-01-17T17:54:05.190Z,8.26
2023-01-17T17:56:34.106Z,8.24
2023-01-17T17:59:03.297Z,8.23
2023-01-17T18:01:31.377Z,8.24
2023-01-17T18:04:03.600Z,8.20
2023-01-17T18:06:31.562Z,8.13
2023-01-17T18:08:59.378Z,8.15
2023-01-17T18:11:28.004Z,8.16
2023-01-17T18:13:57.137Z,8.16
2023-01-17T18:16:28.609Z,8.15
2023-01-17T18:18:57.658Z,8.15
2023-01-17T18:21:31.620Z,8.13
2023-01-17T18:24:01.785Z,8.17
2023-01-17T18:26:32.433Z,8.14
2023-01-17T18:29:01.511Z,8.21
2023-01-17T18:31:30.511Z,8.22
2023-01-17T18:34:00.338Z,8.24
2023-01-17T18:36:28.906Z,8.26
2023-01-17T18:38:57.270Z,8.33
2023-01-17T18:41:27.210Z,8.32
2023-01-17T18:43:57.877Z,8.36
2023-01-17T18:46:26.587Z,8.37
2023-01-17T18:48:57.401Z,8.35
2023-01-17T18:51:26.361Z,8.40
2023-01-17T18:53:56.055Z,8.41
2023-01-17T18:56:24.031Z,8.42
2023-01-17T18:58:51.519Z,8.38
2023-01-17T19:01:22.735Z,8.38
2023-01-17T19:03:52.594Z,8.43
2023-01-17T19:06:24.192Z,8.44
2023-01-17T19:08:52.139Z,8.44
2023-01-17T19:11:22.111Z,8.45
2023-01-17T19:13:50.391Z,8.47
2023-01-17T19:16:31.682Z,8.50
2023-01-17T19:19:05.239Z,8.48
2023-01-17T19:21:33.533Z,8.51
2023-01-17T19:24:01.755Z,8.53
2023-01-17T19:26:30.103Z,8.56
2023-01-17T19:29:00.037Z,8.57
2023-01-17T19:31:30.357Z,8.68
2023-01-17T19:33:59.533Z,8.58
2023-01-17T19:36:29.437Z,8.61
2023-01-17T19:39:06.196Z,8.59
2023-01-17T19:41:35.553Z,8.53
2023-01-17T19:44:06.045Z,8.49
2023-01-17T19:46:33.868Z,8.51
2023-01-17T19:49:02.195Z,8.51
2023-01-17T19:51:30.117Z,8.47
2023-01-17T19:54:01.370Z,8.47
2023-01-17T19:56:29.653Z,8.43
2023-01-17T19:59:01.166Z,8.38
2023-01-17T20:01:31.881Z,8.35
2023-01-17T20:04:01.538Z,8.33
2023-01-17T20:06:32.246Z,8.28
2023-01-17T20:09:00.397Z,8.24
2023-01-17T20:11:28.589Z,8.24
2023-01-17T20:13:57.654Z,8.21
2023-01-17T20:16:27.850Z,8.17
2023-01-17T20:18:55.811Z,8.14
2023-01-17T20:21:26.705Z,8.15
2023-01-17T20:23:56.790Z,8.16
2023-01-17T20:26:31.170Z,8.12
2023-01-17T20:28:59.217Z,8.13
2023-01-17T20:31:28.615Z,8.14
2023-01-17T20:33:56.748Z,8.14
2023-01-17T20:36:27.065Z,8.16
2023-01-17T20:38:57.089Z,8.20
2023-01-17T20:41:29.822Z,8.22
2023-01-17T20:43:59.238Z,8.21
2023-01-17T20:46:31.408Z,8.18
2023-01-17T20:49:01.219Z,8.23
2023-01-17T20:51:29.784Z,8.22
2023-01-17T20:54:00.821Z,8.28
2023-01-17T20:56:30.213Z,8.28
2023-01-17T20:58:58.147Z,8.34
2023-01-17T21:01:26.092Z,8.33
2023-01-17T21:03:54.077Z,8.40
2023-01-17T21:06:23.336Z,8.47
2023-01-17T21:08:51.463Z,8.48
2023-01-17T21:11:21.888Z,8.47
2023-01-17T21:13:51.334Z,8.47
2023-01-17T21:16:21.223Z,8.47
2023-01-17T21:18:51.101Z,8.44
2023-01-17T21:21:22.171Z,8.45
2023-01-17T21:23:51.556Z,8.39
2023-01-17T21:26:20.639Z,8.42
2023-01-17T21:28:49.476Z,8.41
2023-01-17T21:31:23.440Z,8.44
2023-01-17T21:33:51.393Z,8.50
2023-01-17T21:36:20.051Z,8.44
2023-01-17T21:38:52.513Z,8.50
2023-01-17T21:41:21.954Z,8.48
2023-01-17T21:43:53.920Z,8.48
2023-01-17T21:46:22.303Z,8.43
2023-01-17T21:48:49.933Z,8.42
2023-01-17T21:51:19.596Z,8.38
2023-01-17T21:53:47.656Z,8.37
2023-01-17T21:56:33.757Z,8.46
2023-01-17T21:59:01.589Z,8.43
2023-01-17T22:01:32.347Z,8.45
2023-01-17T22:04:02.860Z,8.42
2023-01-17T22:06:34.340Z,8.43
2023-01-17T22:09:02.189Z,8.37
2023-01-17T22:11:32.735Z,8.39
2023-01-17T22:14:00.324Z,8.42
2023-01-17T22:16:28.335Z,8.61
2023-01-17T22:18:56.095Z,8.73
2023-01-17T22:21:28.442Z,8.67
2023-01-17T22:23:58.303Z,8.83
2023-01-17T22:26:28.608Z,8.81
2023-01-17T22:28:59.255Z,8.76
2023-01-17T22:31:28.415Z,8.76
2023-01-17T22:34:03.812Z,8.71
2023-01-17T22:36:34.868Z,8.73
2023-01-17T22:39:02.695Z,8.67
2023-01-17T22:41:32.136Z,8.73
2023-01-17T22:44:02.201Z,8.70
2023-01-17T22:46:32.482Z,8.73
2023-01-17T22:49:00.377Z,8.71
2023-01-17T22:51:28.533Z,8.75
2023-01-17T22:53:58.412Z,8.72
2023-01-17T22:56:27.903Z,8.65
2023-01-17T22:58:55.752Z,8.65
2023-01-17T23:01:31.325Z,8.62
2023-01-17T23:04:01.361Z,8.62
2023-01-17T23:06:35.913Z,8.61
2023-01-17T23:09:06.518Z,8.55
2023-01-17T23:11:46.303Z,8.61
2023-01-17T23:14:51.746Z,8.54
2023-01-17T23:17:39.120Z,8.52
2023-01-17T23:20:08.682Z,8.50
2023-01-17T23:22:37.063Z,8.48
2023-01-17T23:25:11.045Z,8.41
2023-01-17T23:28:02.883Z,8.35
2023-01-17T23:30:34.784Z,8.30
2023-01-17T23:33:07.711Z,8.32
2023-01-17T23:35:42.075Z,8.25
2023-01-17T23:38:29.244Z,8.30
2023-01-17T23:41:24.396Z,8.28
2023-01-17T23:43:57.249Z,8.26
2023-01-17T23:46:26.623Z,8.25
2023-01-17T23:48:55.303Z,8.23
2023-01-17T23:51:22.870Z,8.18
2023-01-17T23:53:53.488Z,8.24
2023-01-17T23:56:23.196Z,8.23
2023-01-17T23:58:50.780Z,8.22
